createdAt,value
2018-10-12T00:00:07.193Z,14.6666666667
2018-10-12T00:00:19.616Z,14.7222222222
2018-10-12T00:00:32.033Z,14.6666666667
2018-10-12T00:00:44.455Z,14.6666666667
2018-10-12T00:00:56.863Z,14.6666666667
2018-10-12T00:01:09.283Z,14.6666666667
2018-10-12T00:01:21.695Z,14.6666666667
2018-10-12T00:01:34.109Z,14.6666666667
2018-10-12T00:01:46.543Z,14.6666666667
2018-10-12T00:01:58.951Z,14.6666666667
2018-10-12T00:02:11.369Z,14.6666666667
2018-10-12T00:02:23.756Z,14.6666666667
2018-10-12T00:02:36.188Z,14.6666666667
2018-10-12T00:02:48.593Z,14.6666666667
2018-10-12T00:03:00.981Z,14.6666666667
2018-10-12T00:03:13.367Z,14.6666666667
2018-10-12T00:03:25.753Z,14.6666666667
2018-10-12T00:03:38.138Z,14.6666666667
2018-10-12T00:03:50.568Z,14.6666666667
2018-10-12T00:04:03.100Z,14.6666666667
2018-10-12T00:04:15.595Z,14.6666666667
2018-10-12T00:04:28.053Z,14.6666666667
2018-10-12T00:04:40.475Z,14.6666666667
2018-10-12T00:04:52.883Z,14.6666666667
2018-10-12T00:05:05.304Z,14.6666666667
2018-10-12T00:05:17.700Z,14.6666666667
2018-10-12T00:05:30.149Z,14.6666666667
2018-10-12T00:05:42.534Z,14.6666666667
2018-10-12T00:05:54.991Z,14.6666666667
2018-10-12T00:06:07.389Z,14.6666666667
2018-10-12T00:06:19.862Z,14.6666666667
2018-10-12T00:06:32.240Z,14.6666666667
2018-10-12T00:06:44.641Z,14.6666666667
2018-10-12T00:06:57.034Z,14.6666666667
2018-10-12T00:07:09.435Z,14.6111111111
2018-10-12T00:07:21.831Z,14.6666666667
2018-10-12T00:07:34.224Z,14.6666666667
2018-10-12T00:07:46.680Z,14.6666666667
2018-10-12T00:07:59.080Z,14.6666666667
2018-10-12T00:08:11.466Z,14.6666666667
2018-10-12T00:08:23.855Z,14.6666666667
2018-10-12T00:08:36.238Z,14.6666666667
2018-10-12T00:08:48.628Z,14.6666666667
2018-10-12T00:09:01.028Z,14.6111111111
2018-10-12T00:09:13.421Z,14.6666666667
2018-10-12T00:09:25.804Z,14.6666666667
2018-10-12T00:09:38.213Z,14.6111111111
2018-10-12T00:09:50.603Z,14.6111111111
2018-10-12T00:10:03.006Z,14.6111111111
2018-10-12T00:10:15.743Z,14.6111111111
2018-10-12T00:10:28.154Z,14.6111111111
2018-10-12T00:10:40.547Z,14.6111111111
2018-10-12T00:10:53.053Z,14.6111111111
2018-10-12T00:11:05.464Z,14.6111111111
2018-10-12T00:11:17.872Z,14.6111111111
2018-10-12T00:11:30.268Z,14.6111111111
2018-10-12T00:11:42.674Z,14.5555555556
2018-10-12T00:11:55.076Z,14.6111111111
2018-10-12T00:12:07.464Z,14.5555555556
2018-10-12T00:12:19.841Z,14.5555555556
2018-10-12T00:12:32.226Z,14.5555555556
2018-10-12T00:12:44.867Z,14.5555555556
2018-10-12T00:12:57.309Z,14.5555555556
2018-10-12T00:13:09.707Z,14.5555555556
2018-10-12T00:13:22.093Z,14.6111111111
2018-10-12T00:13:34.488Z,14.5555555556
2018-10-12T00:13:46.875Z,14.5555555556
2018-10-12T00:13:59.274Z,14.5555555556
2018-10-12T00:14:11.703Z,14.5555555556
2018-10-12T00:14:24.106Z,14.5555555556
2018-10-12T00:14:36.503Z,14.5
2018-10-12T00:14:49.344Z,14.5
2018-10-12T00:15:01.761Z,14.5
2018-10-12T00:15:14.211Z,14.5
2018-10-12T00:15:26.592Z,14.5
2018-10-12T00:15:38.977Z,14.5
2018-10-12T00:15:51.361Z,14.5
2018-10-12T00:16:03.769Z,14.5
2018-10-12T00:16:16.285Z,14.5
2018-10-12T00:16:28.700Z,14.5
2018-10-12T00:16:41.103Z,14.4444444444
2018-10-12T00:16:53.523Z,14.4444444444
2018-10-12T00:17:05.937Z,14.5
2018-10-12T00:17:18.588Z,14.4444444444
2018-10-12T00:17:30.995Z,14.4444444444
2018-10-12T00:17:43.413Z,14.4444444444
2018-10-12T00:17:55.817Z,14.4444444444
2018-10-12T00:18:08.217Z,14.4444444444
2018-10-12T00:18:20.652Z,14.4444444444
2018-10-12T00:18:33.041Z,14.4444444444
2018-10-12T00:18:45.435Z,14.4444444444
2018-10-12T00:18:57.866Z,14.4444444444
2018-10-12T00:19:10.285Z,14.4444444444
2018-10-12T00:19:22.924Z,14.4444444444
2018-10-12T00:19:35.332Z,14.4444444444
2018-10-12T00:19:47.738Z,14.3888888889
2018-10-12T00:20:00.162Z,14.4444444444
2018-10-12T00:20:12.577Z,14.4444444444
2018-10-12T00:20:24.981Z,14.3888888889
2018-10-12T00:20:37.787Z,14.4444444444
2018-10-12T00:20:50.289Z,14.3888888889
2018-10-12T00:21:02.705Z,14.3888888889
2018-10-12T00:21:15.093Z,14.3888888889
2018-10-12T00:21:27.493Z,14.3888888889
2018-10-12T00:21:39.867Z,14.3888888889
2018-10-12T00:21:52.258Z,14.3888888889
2018-10-12T00:22:04.646Z,14.3888888889
2018-10-12T00:22:17.098Z,14.3888888889
2018-10-12T00:22:29.505Z,14.3888888889
2018-10-12T00:22:41.891Z,14.3888888889
2018-10-12T00:22:54.296Z,14.3888888889
2018-10-12T00:23:06.724Z,14.3333333333
2018-10-12T00:23:19.171Z,14.3333333333
2018-10-12T00:23:31.561Z,14.3888888889
2018-10-12T00:23:43.940Z,14.3888888889
2018-10-12T00:23:56.333Z,14.3888888889
2018-10-12T00:24:08.741Z,14.3888888889
2018-10-12T00:24:21.303Z,14.3888888889
2018-10-12T00:24:33.703Z,14.3333333333
2018-10-12T00:24:46.193Z,14.3888888889
2018-10-12T00:24:58.594Z,14.3888888889
2018-10-12T00:25:11.191Z,14.3888888889
2018-10-12T00:25:23.596Z,14.3333333333
2018-10-12T00:25:35.987Z,14.3888888889
2018-10-12T00:25:48.398Z,14.3888888889
2018-10-12T00:26:00.852Z,14.3888888889
2018-10-12T00:26:13.238Z,14.3333333333
2018-10-12T00:26:25.661Z,14.3888888889
2018-10-12T00:26:38.085Z,14.3888888889
2018-10-12T00:26:51.197Z,14.3888888889
2018-10-12T00:27:03.590Z,14.3888888889
2018-10-12T00:27:15.988Z,14.3333333333
2018-10-12T00:27:29.570Z,14.3333333333
2018-10-12T00:27:41.975Z,14.3888888889
2018-10-12T00:27:54.381Z,14.3888888889
2018-10-12T00:28:06.772Z,14.3333333333
2018-10-12T00:28:19.166Z,14.3888888889
2018-10-12T00:28:31.556Z,14.3333333333
2018-10-12T00:28:43.957Z,14.3333333333
2018-10-12T00:28:56.443Z,14.3333333333
2018-10-12T00:29:08.836Z,14.3333333333
2018-10-12T00:29:21.241Z,14.3333333333
2018-10-12T00:29:33.646Z,14.3333333333
2018-10-12T00:29:47.002Z,14.3333333333
2018-10-12T00:29:59.439Z,14.3333333333
2018-10-12T00:30:11.862Z,14.3333333333
2018-10-12T00:30:24.263Z,14.3333333333
2018-10-12T00:30:36.666Z,14.2777777778
2018-10-12T00:30:49.058Z,14.2777777778
2018-10-12T00:31:01.466Z,14.3333333333
2018-10-12T00:31:14.079Z,14.2777777778
2018-10-12T00:31:26.620Z,14.2777777778
2018-10-12T00:31:39.042Z,14.2777777778
2018-10-12T00:31:51.444Z,14.2777777778
2018-10-12T00:32:03.835Z,14.2777777778
2018-10-12T00:32:16.235Z,14.2777777778
2018-10-12T00:32:28.630Z,14.2777777778
2018-10-12T00:32:41.025Z,14.2777777778
2018-10-12T00:32:53.420Z,14.2777777778
2018-10-12T00:33:05.803Z,14.2777777778
2018-10-12T00:33:18.207Z,14.2777777778
2018-10-12T00:33:30.647Z,14.2777777778
2018-10-12T00:33:43.031Z,14.2777777778
2018-10-12T00:33:55.425Z,14.2777777778
2018-10-12T00:34:07.841Z,14.2777777778
2018-10-12T00:34:20.257Z,14.2777777778
2018-10-12T00:34:32.649Z,14.2777777778
2018-10-12T00:34:45.146Z,14.2777777778
2018-10-12T00:34:57.534Z,14.2777777778
2018-10-12T00:35:09.924Z,14.2777777778
2018-10-12T00:35:22.333Z,14.2222222222
2018-10-12T00:35:34.733Z,14.2777777778
2018-10-12T00:35:47.132Z,14.2777777778
2018-10-12T00:35:59.598Z,14.2222222222
2018-10-12T00:36:11.974Z,14.2222222222
2018-10-12T00:36:24.372Z,14.2222222222
2018-10-12T00:36:36.750Z,14.2222222222
2018-10-12T00:36:49.150Z,14.2777777778
2018-10-12T00:37:01.559Z,14.2222222222
2018-10-12T00:37:13.943Z,14.2222222222
2018-10-12T00:37:26.375Z,14.2222222222
2018-10-12T00:37:38.778Z,14.2222222222
2018-10-12T00:37:51.198Z,14.2222222222
2018-10-12T00:38:03.621Z,14.2222222222
2018-10-12T00:38:16.003Z,14.2222222222
2018-10-12T00:38:28.490Z,14.2222222222
2018-10-12T00:38:40.946Z,14.2222222222
2018-10-12T00:38:53.334Z,14.2222222222
2018-10-12T00:39:05.745Z,14.2222222222
2018-10-12T00:39:18.160Z,14.2222222222
2018-10-12T00:39:30.557Z,14.2222222222
2018-10-12T00:39:43.469Z,14.2222222222
2018-10-12T00:39:55.870Z,14.2222222222
2018-10-12T00:40:08.340Z,14.2222222222
2018-10-12T00:40:20.730Z,14.2222222222
2018-10-12T00:40:33.118Z,14.2222222222
2018-10-12T00:40:45.502Z,14.1666666667
2018-10-12T00:40:57.892Z,14.2222222222
2018-10-12T00:41:10.323Z,14.1666666667
2018-10-12T00:41:22.747Z,14.1666666667
2018-10-12T00:41:35.128Z,14.2222222222
2018-10-12T00:41:47.663Z,14.2222222222
2018-10-12T00:42:00.049Z,14.2222222222
2018-10-12T00:42:12.531Z,14.2222222222
2018-10-12T00:42:24.915Z,14.1666666667
2018-10-12T00:42:37.328Z,14.1666666667
2018-10-12T00:42:49.750Z,14.1666666667
2018-10-12T00:43:02.158Z,14.2222222222
2018-10-12T00:43:14.711Z,14.2222222222
2018-10-12T00:43:27.130Z,14.1666666667
2018-10-12T00:43:39.535Z,14.2222222222
2018-10-12T00:43:51.942Z,14.2222222222
2018-10-12T00:44:04.341Z,14.2222222222
2018-10-12T00:44:16.741Z,14.2222222222
2018-10-12T00:44:29.362Z,14.2222222222
2018-10-12T00:44:41.749Z,14.2222222222
2018-10-12T00:44:54.370Z,14.2222222222
2018-10-12T00:45:06.806Z,14.2222222222
2018-10-12T00:45:19.215Z,14.2222222222
2018-10-12T00:45:31.607Z,14.2222222222
2018-10-12T00:45:43.980Z,14.2222222222
2018-10-12T00:45:56.373Z,14.2222222222
2018-10-12T00:46:08.767Z,14.2222222222
2018-10-12T00:46:21.204Z,14.2222222222
2018-10-12T00:46:33.611Z,14.2222222222
2018-10-12T00:46:46.015Z,14.2222222222
2018-10-12T00:46:58.403Z,14.2222222222
2018-10-12T00:47:10.841Z,14.2222222222
2018-10-12T00:47:23.320Z,14.2222222222
2018-10-12T00:47:35.779Z,14.2222222222
2018-10-12T00:47:48.194Z,14.2222222222
2018-10-12T00:48:00.593Z,14.2222222222
2018-10-12T00:48:12.997Z,14.2222222222
2018-10-12T00:48:25.376Z,14.2222222222
2018-10-12T00:48:37.842Z,14.2222222222
2018-10-12T00:48:50.320Z,14.2222222222
2018-10-12T00:49:02.728Z,14.2222222222
2018-10-12T00:49:15.115Z,14.2222222222
2018-10-12T00:49:27.503Z,14.2222222222
2018-10-12T00:49:40.583Z,14.2222222222
2018-10-12T00:49:54.512Z,14.2222222222
2018-10-12T00:50:07.336Z,14.2222222222
2018-10-12T00:50:19.740Z,14.2222222222
2018-10-12T00:50:32.146Z,14.2222222222
2018-10-12T00:50:44.556Z,14.2222222222
2018-10-12T00:50:56.983Z,14.2222222222
2018-10-12T00:51:09.383Z,14.2222222222
2018-10-12T00:51:21.782Z,14.2222222222
2018-10-12T00:51:34.217Z,14.2222222222
2018-10-12T00:51:46.675Z,14.2222222222
2018-10-12T00:51:59.092Z,14.2222222222
2018-10-12T00:52:11.488Z,14.2222222222
2018-10-12T00:52:23.913Z,14.2222222222
2018-10-12T00:52:36.330Z,14.2222222222
2018-10-12T00:52:48.720Z,14.1666666667
2018-10-12T00:53:01.117Z,14.1666666667
2018-10-12T00:53:13.520Z,14.2222222222
2018-10-12T00:53:25.924Z,14.1666666667
2018-10-12T00:53:38.333Z,14.1666666667
2018-10-12T00:53:50.731Z,14.1666666667
2018-10-12T00:54:03.171Z,14.1666666667
2018-10-12T00:54:15.573Z,14.1666666667
2018-10-12T00:54:28.037Z,14.1666666667
2018-10-12T00:54:40.425Z,14.1666666667
2018-10-12T00:54:52.835Z,14.1666666667
2018-10-12T00:55:05.250Z,14.1666666667
2018-10-12T00:55:17.645Z,14.1111111111
2018-10-12T00:55:30.099Z,14.1666666667
2018-10-12T00:55:42.516Z,14.1666666667
2018-10-12T00:55:55.258Z,14.1111111111
2018-10-12T00:56:07.729Z,14.1111111111
2018-10-12T00:56:20.143Z,14.1666666667
2018-10-12T00:56:32.546Z,14.1666666667
2018-10-12T00:56:44.951Z,14.1111111111
2018-10-12T00:56:57.343Z,14.1111111111
2018-10-12T00:57:09.745Z,14.1111111111
2018-10-12T00:57:22.143Z,14.1111111111
2018-10-12T00:57:34.539Z,14.1111111111
2018-10-12T00:57:46.913Z,14.1111111111
2018-10-12T00:57:59.299Z,14.1111111111
2018-10-12T00:58:11.837Z,14.0555555556
2018-10-12T00:58:24.243Z,14.1111111111
2018-10-12T00:58:36.654Z,14.1111111111
2018-10-12T00:58:49.165Z,14.0555555556
2018-10-12T00:59:01.558Z,14.0555555556
2018-10-12T00:59:13.981Z,14.0555555556
2018-10-12T00:59:26.394Z,14.0555555556
2018-10-12T00:59:38.778Z,14.0555555556
2018-10-12T00:59:51.185Z,14.1111111111
2018-10-12T01:00:03.599Z,14.0555555556
2018-10-12T01:00:16.012Z,14.0555555556
2018-10-12T01:00:28.435Z,14.0555555556
2018-10-12T01:00:40.868Z,14.0555555556
2018-10-12T01:00:53.317Z,14.0555555556
2018-10-12T01:01:05.734Z,14.0555555556
2018-10-12T01:01:18.155Z,14.0555555556
2018-10-12T01:01:30.570Z,14.0555555556
2018-10-12T01:01:42.982Z,14.0555555556
2018-10-12T01:01:55.374Z,14.0555555556
2018-10-12T01:02:07.785Z,14.0555555556
2018-10-12T01:02:20.182Z,14.0555555556
2018-10-12T01:02:32.609Z,14.0555555556
2018-10-12T01:02:45.081Z,14.0555555556
2018-10-12T01:02:57.511Z,14
2018-10-12T01:03:10.120Z,14.0555555556
2018-10-12T01:03:22.524Z,14.0555555556
2018-10-12T01:03:34.920Z,14.0555555556
2018-10-12T01:03:47.328Z,14.0555555556
2018-10-12T01:03:59.808Z,14.0555555556
2018-10-12T01:04:12.223Z,14
2018-10-12T01:04:24.691Z,14
2018-10-12T01:04:37.109Z,14.0555555556
2018-10-12T01:04:49.856Z,14
2018-10-12T01:05:02.290Z,14
2018-10-12T01:05:14.710Z,14
2018-10-12T01:05:27.135Z,14
2018-10-12T01:05:39.537Z,14
2018-10-12T01:05:51.948Z,14
2018-10-12T01:06:04.357Z,14
2018-10-12T01:06:16.763Z,14
2018-10-12T01:06:29.318Z,14
2018-10-12T01:06:42.748Z,13.9444444444
2018-10-12T01:06:56.045Z,13.9444444444
2018-10-12T01:07:08.485Z,14
2018-10-12T01:07:20.907Z,13.9444444444
2018-10-12T01:07:33.315Z,13.9444444444
2018-10-12T01:07:45.731Z,13.9444444444
2018-10-12T01:07:58.123Z,13.9444444444
2018-10-12T01:08:10.516Z,13.9444444444
2018-10-12T01:08:22.928Z,13.9444444444
2018-10-12T01:08:35.328Z,13.9444444444
2018-10-12T01:08:47.789Z,13.9444444444
2018-10-12T01:09:00.187Z,13.8888888889
2018-10-12T01:09:12.589Z,13.8888888889
2018-10-12T01:09:25.061Z,13.8888888889
2018-10-12T01:09:37.448Z,13.8888888889
2018-10-12T01:09:49.853Z,13.9444444444
2018-10-12T01:10:02.241Z,13.8888888889
2018-10-12T01:10:14.646Z,13.8888888889
2018-10-12T01:10:27.058Z,13.8888888889
2018-10-12T01:10:39.471Z,13.8888888889
2018-10-12T01:10:51.869Z,13.8888888889
2018-10-12T01:11:04.264Z,13.8888888889
2018-10-12T01:11:16.679Z,13.8888888889
2018-10-12T01:11:29.065Z,13.8333333333
2018-10-12T01:11:41.469Z,13.8333333333
2018-10-12T01:11:53.867Z,13.8333333333
2018-10-12T01:12:06.541Z,13.8333333333
2018-10-12T01:12:20.294Z,13.8333333333
2018-10-12T01:12:32.914Z,13.8333333333
2018-10-12T01:12:45.604Z,13.8333333333
2018-10-12T01:12:58.002Z,13.8333333333
2018-10-12T01:13:10.399Z,13.7777777778
2018-10-12T01:13:22.800Z,13.7777777778
2018-10-12T01:13:35.206Z,13.7777777778
2018-10-12T01:13:47.605Z,13.7777777778
2018-10-12T01:14:00.010Z,13.7777777778
2018-10-12T01:14:12.422Z,13.7777777778
2018-10-12T01:14:24.809Z,13.7777777778
2018-10-12T01:14:37.204Z,13.7777777778
2018-10-12T01:14:49.620Z,13.7777777778
2018-10-12T01:15:02.024Z,13.7777777778
2018-10-12T01:15:14.472Z,13.7777777778
2018-10-12T01:15:26.908Z,13.7222222222
2018-10-12T01:15:39.311Z,13.7222222222
2018-10-12T01:15:51.707Z,13.7222222222
2018-10-12T01:16:04.105Z,13.7222222222
2018-10-12T01:16:16.520Z,13.7222222222
2018-10-12T01:16:28.914Z,13.7222222222
2018-10-12T01:16:41.302Z,13.7222222222
2018-10-12T01:16:53.699Z,13.7222222222
2018-10-12T01:17:06.086Z,13.7222222222
2018-10-12T01:17:18.484Z,13.7222222222
2018-10-12T01:17:31.040Z,13.7222222222
2018-10-12T01:17:43.437Z,13.7222222222
2018-10-12T01:17:55.839Z,13.6666666667
2018-10-12T01:18:08.246Z,13.7222222222
2018-10-12T01:18:20.670Z,13.7222222222
2018-10-12T01:18:33.051Z,13.7222222222
2018-10-12T01:18:45.440Z,13.7222222222
2018-10-12T01:18:57.826Z,13.6666666667
2018-10-12T01:19:10.230Z,13.7222222222
2018-10-12T01:19:22.759Z,13.6666666667
2018-10-12T01:19:35.150Z,13.7222222222
2018-10-12T01:19:47.536Z,13.6666666667
2018-10-12T01:19:59.933Z,13.6666666667
2018-10-12T01:20:12.337Z,13.6666666667
2018-10-12T01:20:24.719Z,13.6666666667
2018-10-12T01:20:37.314Z,13.6666666667
2018-10-12T01:20:49.835Z,13.6666666667
2018-10-12T01:21:02.368Z,13.7222222222
2018-10-12T01:21:14.743Z,13.6666666667
2018-10-12T01:21:27.276Z,13.6666666667
2018-10-12T01:21:39.790Z,13.6666666667
2018-10-12T01:21:52.179Z,13.6666666667
2018-10-12T01:22:04.580Z,13.6666666667
2018-10-12T01:22:17.248Z,13.6666666667
2018-10-12T01:22:29.631Z,13.6666666667
2018-10-12T01:22:42.069Z,13.6666666667
2018-10-12T01:22:54.470Z,13.6666666667
2018-10-12T01:23:06.901Z,13.6666666667
2018-10-12T01:23:19.312Z,13.6666666667
2018-10-12T01:23:31.716Z,13.6666666667
2018-10-12T01:23:44.111Z,13.6666666667
2018-10-12T01:23:56.717Z,13.6666666667
2018-10-12T01:24:09.146Z,13.6111111111
2018-10-12T01:24:21.662Z,13.6666666667
2018-10-12T01:24:34.049Z,13.6111111111
2018-10-12T01:24:46.547Z,13.6666666667
2018-10-12T01:24:59.121Z,13.6111111111
2018-10-12T01:25:11.512Z,13.6111111111
2018-10-12T01:25:23.968Z,13.6111111111
2018-10-12T01:25:36.419Z,13.6111111111
2018-10-12T01:25:48.816Z,13.6111111111
2018-10-12T01:26:01.213Z,13.6111111111
2018-10-12T01:26:13.629Z,13.6111111111
2018-10-12T01:26:26.064Z,13.6111111111
2018-10-12T01:26:38.494Z,13.6111111111
2018-10-12T01:26:50.880Z,13.6111111111
2018-10-12T01:27:03.297Z,13.6111111111
2018-10-12T01:27:15.706Z,13.6111111111
2018-10-12T01:27:29.190Z,13.5555555556
2018-10-12T01:27:41.588Z,13.5555555556
2018-10-12T01:27:53.999Z,13.5555555556
2018-10-12T01:28:06.412Z,13.6111111111
2018-10-12T01:28:18.800Z,13.5555555556
2018-10-12T01:28:31.194Z,13.5555555556
2018-10-12T01:28:43.568Z,13.5555555556
2018-10-12T01:28:56.591Z,13.5555555556
2018-10-12T01:29:09.023Z,13.5555555556
2018-10-12T01:29:21.442Z,13.5555555556
2018-10-12T01:29:33.856Z,13.5555555556
2018-10-12T01:29:46.402Z,13.5555555556
2018-10-12T01:29:58.804Z,13.5555555556
2018-10-12T01:30:11.233Z,13.5555555556
2018-10-12T01:30:23.642Z,13.5
2018-10-12T01:30:36.064Z,13.5555555556
2018-10-12T01:30:48.464Z,13.5555555556
2018-10-12T01:31:00.873Z,13.5555555556
2018-10-12T01:31:13.403Z,13.5
2018-10-12T01:31:25.807Z,13.5555555556
2018-10-12T01:31:38.211Z,13.5
2018-10-12T01:31:50.614Z,13.5555555556
2018-10-12T01:32:03.051Z,13.5
2018-10-12T01:32:15.459Z,13.5555555556
2018-10-12T01:32:27.895Z,13.5555555556
2018-10-12T01:32:40.320Z,13.5555555556
2018-10-12T01:32:52.797Z,13.5555555556
2018-10-12T01:33:05.223Z,13.5
2018-10-12T01:33:17.644Z,13.5
2018-10-12T01:33:30.067Z,13.5555555556
2018-10-12T01:33:42.485Z,13.5555555556
2018-10-12T01:33:55.037Z,13.5
2018-10-12T01:34:07.473Z,13.5555555556
2018-10-12T01:34:19.883Z,13.5
2018-10-12T01:34:32.270Z,13.5
2018-10-12T01:34:44.792Z,13.5
2018-10-12T01:34:57.170Z,13.5
2018-10-12T01:35:09.582Z,13.5555555556
2018-10-12T01:35:22.033Z,13.5
2018-10-12T01:35:34.422Z,13.5
2018-10-12T01:35:46.947Z,13.5
2018-10-12T01:35:59.473Z,13.5
2018-10-12T01:36:11.853Z,13.5
2018-10-12T01:36:24.257Z,13.5
2018-10-12T01:36:36.652Z,13.5
2018-10-12T01:36:49.038Z,13.5
2018-10-12T01:37:01.410Z,13.5
2018-10-12T01:37:13.798Z,13.5
2018-10-12T01:37:26.201Z,13.5555555556
2018-10-12T01:37:38.595Z,13.5
2018-10-12T01:37:51.008Z,13.5
2018-10-12T01:38:03.405Z,13.5
2018-10-12T01:38:15.822Z,13.5
2018-10-12T01:38:28.268Z,13.5555555556
2018-10-12T01:38:40.675Z,13.5
2018-10-12T01:38:53.076Z,13.5
2018-10-12T01:39:05.475Z,13.5555555556
2018-10-12T01:39:17.876Z,13.5
2018-10-12T01:39:30.262Z,13.5555555556
2018-10-12T01:39:42.940Z,13.5
2018-10-12T01:39:55.332Z,13.5
2018-10-12T01:40:07.739Z,13.5
2018-10-12T01:40:20.138Z,13.5
2018-10-12T01:40:32.546Z,13.5555555556
2018-10-12T01:40:44.953Z,13.5
2018-10-12T01:40:57.358Z,13.5
2018-10-12T01:41:09.766Z,13.5
2018-10-12T01:41:22.156Z,13.5
2018-10-12T01:41:34.573Z,13.5555555556
2018-10-12T01:41:46.955Z,13.5555555556
2018-10-12T01:41:59.435Z,13.5
2018-10-12T01:42:11.843Z,13.5
2018-10-12T01:42:24.238Z,13.5555555556
2018-10-12T01:42:36.660Z,13.5
2018-10-12T01:42:49.082Z,13.5555555556
2018-10-12T01:43:01.483Z,13.5555555556
2018-10-12T01:43:13.876Z,13.5
2018-10-12T01:43:26.378Z,13.5
2018-10-12T01:43:38.790Z,13.5
2018-10-12T01:43:51.226Z,13.5
2018-10-12T01:44:03.633Z,13.5
2018-10-12T01:44:16.025Z,13.5555555556
2018-10-12T01:44:28.439Z,13.5
2018-10-12T01:44:41.240Z,13.5555555556
2018-10-12T01:44:53.637Z,13.5555555556
2018-10-12T01:45:06.191Z,13.5555555556
2018-10-12T01:45:18.603Z,13.5555555556
2018-10-12T01:45:31.003Z,13.5
2018-10-12T01:45:43.406Z,13.5555555556
2018-10-12T01:45:55.805Z,13.5555555556
2018-10-12T01:46:08.202Z,13.5555555556
2018-10-12T01:46:21.098Z,13.5555555556
2018-10-12T01:46:33.491Z,13.5
2018-10-12T01:46:45.878Z,13.5555555556
2018-10-12T01:46:58.320Z,13.5555555556
2018-10-12T01:47:10.720Z,13.5555555556
2018-10-12T01:47:23.097Z,13.5555555556
2018-10-12T01:47:35.491Z,13.5555555556
2018-10-12T01:47:47.939Z,13.5555555556
2018-10-12T01:48:00.321Z,13.5
2018-10-12T01:48:12.695Z,13.5555555556
2018-10-12T01:48:25.084Z,13.5555555556
2018-10-12T01:48:37.462Z,13.5555555556
2018-10-12T01:48:49.877Z,13.5
2018-10-12T01:49:02.270Z,13.5555555556
2018-10-12T01:49:14.679Z,13.5555555556
2018-10-12T01:49:27.067Z,13.5555555556
2018-10-12T01:49:39.625Z,13.5555555556
2018-10-12T01:49:52.035Z,13.5555555556
2018-10-12T01:50:04.489Z,13.5
2018-10-12T01:50:16.868Z,13.5
2018-10-12T01:50:29.272Z,13.5
2018-10-12T01:50:41.653Z,13.5555555556
2018-10-12T01:50:54.054Z,13.5
2018-10-12T01:51:06.449Z,13.5555555556
2018-10-12T01:51:18.848Z,13.5555555556
2018-10-12T01:51:31.229Z,13.5
2018-10-12T01:51:43.609Z,13.5555555556
2018-10-12T01:51:55.983Z,13.5555555556
2018-10-12T01:52:08.383Z,13.5555555556
2018-10-12T01:52:20.783Z,13.5555555556
2018-10-12T01:52:33.179Z,13.5555555556
2018-10-12T01:52:45.567Z,13.5555555556
2018-10-12T01:52:57.958Z,13.5555555556
2018-10-12T01:53:10.351Z,13.5555555556
2018-10-12T01:53:22.761Z,13.5555555556
2018-10-12T01:53:35.164Z,13.5555555556
2018-10-12T01:53:47.556Z,13.5
2018-10-12T01:53:59.950Z,13.5555555556
2018-10-12T01:54:12.334Z,13.5555555556
2018-10-12T01:54:24.734Z,13.5555555556
2018-10-12T01:54:37.153Z,13.5
2018-10-12T01:54:49.543Z,13.5555555556
2018-10-12T01:55:01.943Z,13.5555555556
2018-10-12T01:55:14.811Z,13.5
2018-10-12T01:55:27.269Z,13.5
2018-10-12T01:55:39.681Z,13.5
2018-10-12T01:55:52.378Z,13.5
2018-10-12T01:56:04.794Z,13.5
2018-10-12T01:56:17.211Z,13.5
2018-10-12T01:56:29.590Z,13.5555555556
2018-10-12T01:56:42.020Z,13.5
2018-10-12T01:56:54.411Z,13.5
2018-10-12T01:57:06.822Z,13.5
2018-10-12T01:57:19.212Z,13.5
2018-10-12T01:57:31.632Z,13.5
2018-10-12T01:57:44.046Z,13.5
2018-10-12T01:57:56.609Z,13.5
2018-10-12T01:58:09.160Z,13.5
2018-10-12T01:58:21.565Z,13.4444444444
2018-10-12T01:58:33.971Z,13.5
2018-10-12T01:58:46.527Z,13.5
2018-10-12T01:58:58.950Z,13.4444444444
2018-10-12T01:59:11.339Z,13.4444444444
2018-10-12T01:59:23.718Z,13.4444444444
2018-10-12T01:59:36.121Z,13.4444444444
2018-10-12T01:59:48.527Z,13.5
2018-10-12T02:00:00.905Z,13.4444444444
2018-10-12T02:00:13.321Z,13.4444444444
2018-10-12T02:00:25.727Z,13.4444444444
2018-10-12T02:00:38.167Z,13.4444444444
2018-10-12T02:00:50.582Z,13.4444444444
2018-10-12T02:01:03.053Z,13.4444444444
2018-10-12T02:01:15.506Z,13.3888888889
2018-10-12T02:01:27.976Z,13.4444444444
2018-10-12T02:01:40.422Z,13.4444444444
2018-10-12T02:01:52.823Z,13.4444444444
2018-10-12T02:02:05.234Z,13.4444444444
2018-10-12T02:02:17.625Z,13.4444444444
2018-10-12T02:02:30.028Z,13.4444444444
2018-10-12T02:02:42.431Z,13.3888888889
2018-10-12T02:02:54.882Z,13.3888888889
2018-10-12T02:03:07.315Z,13.3888888889
2018-10-12T02:03:19.758Z,13.3888888889
2018-10-12T02:03:32.165Z,13.3888888889
2018-10-12T02:03:44.573Z,13.3888888889
2018-10-12T02:03:56.990Z,13.3888888889
2018-10-12T02:04:09.689Z,13.3888888889
2018-10-12T02:04:22.080Z,13.3333333333
2018-10-12T02:04:34.482Z,13.3333333333
2018-10-12T02:04:46.980Z,13.3333333333
2018-10-12T02:04:59.359Z,13.3333333333
2018-10-12T02:05:11.772Z,13.3888888889
2018-10-12T02:05:24.392Z,13.3333333333
2018-10-12T02:05:36.771Z,13.3333333333
2018-10-12T02:05:49.160Z,13.3333333333
2018-10-12T02:06:01.544Z,13.3333333333
2018-10-12T02:06:13.941Z,13.3333333333
2018-10-12T02:06:26.353Z,13.3333333333
2018-10-12T02:06:38.764Z,13.3333333333
2018-10-12T02:06:51.155Z,13.3333333333
2018-10-12T02:07:03.536Z,13.3333333333
2018-10-12T02:07:15.938Z,13.3333333333
2018-10-12T02:07:28.329Z,13.3333333333
2018-10-12T02:07:40.727Z,13.2777777778
2018-10-12T02:07:53.119Z,13.3333333333
2018-10-12T02:08:05.662Z,13.3333333333
2018-10-12T02:08:18.049Z,13.3333333333
2018-10-12T02:08:30.446Z,13.2777777778
2018-10-12T02:08:43.131Z,13.2777777778
2018-10-12T02:08:55.530Z,13.2777777778
2018-10-12T02:09:07.920Z,13.2777777778
2018-10-12T02:09:20.316Z,13.2777777778
2018-10-12T02:09:32.728Z,13.2777777778
2018-10-12T02:09:45.127Z,13.2777777778
2018-10-12T02:09:58.173Z,13.2777777778
2018-10-12T02:10:12.157Z,13.2777777778
2018-10-12T02:10:24.589Z,13.2777777778
2018-10-12T02:10:37.145Z,13.2777777778
2018-10-12T02:10:49.524Z,13.2222222222
2018-10-12T02:11:01.950Z,13.2777777778
2018-10-12T02:11:14.341Z,13.2222222222
2018-10-12T02:11:26.741Z,13.2222222222
2018-10-12T02:11:39.138Z,13.2222222222
2018-10-12T02:11:51.512Z,13.2222222222
2018-10-12T02:12:03.888Z,13.2222222222
2018-10-12T02:12:16.286Z,13.2222222222